Flight Track Log - Related Links

Times and Time Zones

All times are in EDT time to prevent confusion due to time zone crossing. See the SWA655 flight status page for this flight to view local times or setup timezone preferences in your user account.

Time Position Orientation Groundspeed Altitude Reporting Facility
EDT Latitude Longitude Course Direction KTS MPH feet Rate Location/Type
Fri 14:34:44 33.6500 -117.8833 203° Southwest 149 171 1,200  Level Southern California TRACON
Fri 14:35:44 33.6167 -117.9000 203° Southwest 158 182 2,800 1,257 Climbing Southern California TRACON
Fri 14:36:29 33.5967 -117.8972 173° South 153 176 3,400 1,738 Climbing Los Angeles Center
Fri 14:37:31 33.5250 -117.9367 205° Southwest 237 273 5,900 1,694 Climbing Los Angeles Center
Fri 14:38:33 33.4583 -117.9900 214° Southwest 267 307 6,900 1,920 Climbing Los Angeles Center
Fri 14:39:36 33.3889 -118.0436 213° Southwest 286 329 9,900 1,824 Climbing Los Angeles Center
Fri 14:40:38 33.3422 -118.1283 237° Southwest 321 369 10,700 2,032 Climbing Los Angeles Center
Fri 14:41:40 33.4197 -118.2047 321° Northwest 319 367 14,100 3,048 Climbing Los Angeles Center
Fri 14:42:42 33.5114 -118.2450 340° North 341 392 17,000 2,371 Climbing Los Angeles Center
Fri 14:43:44 33.6125 -118.2897 340° North 375 432 19,000 2,371 Climbing Los Angeles Center
Fri 14:44:46 33.7267 -118.3403 340° North 404 465 21,900 2,613 Climbing Los Angeles Center
Fri 14:45:48 33.8397 -118.3956 338° Northwest 419 482 24,400 2,129 Climbing Los Angeles Center
Fri 14:46:50 33.9511 -118.4489 338° Northwest 429 494 26,300 2,032 Climbing Los Angeles Center
Fri 14:47:52 34.0656 -118.5042 338° Northwest 440 506 28,600 2,256 Climbing Los Angeles Center
Fri 14:48:55 34.1783 -118.5578 339° North 438 504 31,000 2,496 Climbing Los Angeles Center
Fri 14:49:57 34.3103 -118.6217 338° Northwest 425 489 33,800 1,452 Climbing Los Angeles Center
Fri 14:50:59 34.4161 -118.6736 338° Northwest 414 476 34,000 -618 Climbing Los Angeles Center
Fri 14:52:13 34.5417 -118.7336 339° North 406 467 32,400 -882 Descending Los Angeles Center
Fri 14:53:15 34.6453 -118.7844 338° Northwest 402 463 32,000 -192 Descending Los Angeles Center
Fri 14:54:18 34.7528 -118.8378 338° Northwest 416 479 32,000  Level Los Angeles Center
Fri 14:55:20 34.8686 -118.9278 327° Northwest 416 479 32,000  Level Los Angeles Center
Fri 14:56:22 34.9444 -118.9997 322° Northwest 410 472 32,000  Level Los Angeles Center
Fri 14:57:24 35.0508 -119.1039 321° Northwest 411 473 32,000  Level Los Angeles Center
Fri 14:58:26 35.1397 -119.1900 322° Northwest 411 473 32,000  Level Los Angeles Center
Fri 14:59:28 35.2272 -119.2758 321° Northwest 408 470 32,000  Level Los Angeles Center
Fri 15:00:30 35.3150 -119.3625 321° Northwest 408 470 32,000  Level Los Angeles Center
Fri 15:01:24 35.4019 -119.4483 321° Northwest 411 473 32,000  Level Oakland Center
Fri 15:02:25 35.4914 -119.5364 321° Northwest 415 478 32,000  Level Oakland Center
Fri 15:03:27 35.5806 -119.6253 321° Northwest 415 478 32,000  Level Oakland Center
Fri 15:04:28 35.6700 -119.7139 321° Northwest 416 479 32,000  Level Oakland Center
Fri 15:05:30 35.7589 -119.8036 321° Northwest 417 480 32,000  Level Oakland Center
Fri 15:06:31 35.8658 -119.9128 320° Northwest 419 482 32,000  Level Oakland Center
Fri 15:07:33 35.9556 -120.0006 322° Northwest 416 479 32,000  Level Oakland Center
Fri 15:08:34 36.0442 -120.0900 321° Northwest 415 478 32,000  Level Oakland Center
Fri 15:09:36 36.1339 -120.1803 321° Northwest 417 480 32,000  Level Oakland Center
Fri 15:10:37 36.2228 -120.2708 321° Northwest 417 480 32,000 -146 Level Oakland Center
Fri 15:11:39 36.3128 -120.3631 320° Northwest 421 484 31,700 -634 Descending Oakland Center
Fri 15:12:40 36.4014 -120.4553 320° Northwest 417 480 30,700 -927 Descending Oakland Center
Fri 15:13:42 36.4908 -120.5436 322° Northwest 413 475 29,800 -1,024 Descending Oakland Center
Fri 15:14:43 36.5944 -120.6553 319° Northwest 413 475 28,600 -1,073 Descending Oakland Center
Fri 15:15:45 36.6806 -120.7450 320° Northwest 406 467 27,600 -1,317 Descending Oakland Center
Fri 15:16:46 36.7639 -120.8331 320° Northwest 395 455 25,900 -1,902 Descending Oakland Center
Fri 15:17:48 36.8372 -120.9142 318° Northwest 383 441 23,700 -2,244 Descending Oakland Center
Fri 15:18:49 36.9111 -120.9997 317° Northwest 365 420 21,300 -2,537 Descending Oakland Center
Fri 15:19:51 37.0006 -121.1022 318° Northwest 361 415 18,500 -2,390 Descending Oakland Center
Fri 15:20:52 37.0697 -121.1842 317° Northwest 361 415 16,400 -2,293 Descending Oakland Center
Fri 15:21:54 37.1483 -121.2736 318° Northwest 362 417 13,800 -2,390 Descending Oakland Center
Fri 15:22:55 37.2178 -121.3550 317° Northwest 345 397 11,500 -1,756 Descending Oakland Center
Fri 15:23:57 37.2844 -121.4314 318° Northwest 325 374 10,200 -1,073 Descending Oakland Center
Fri 15:24:58 37.3400 -121.4992 316° Northwest 284 327 9,300 -1,171 Descending Oakland Center
Fri 15:26:00 37.4031 -121.5697 318° Northwest 271 312 7,800 -1,500 Descending Oakland Center
Fri 15:26:22 37.4167 -121.6000 300° West 264 304 7,200 -1,317 Descending Northern Cal TRACON
Fri 15:27:22 37.4667 -121.6667 313° West 260 299 6,000 -600 Descending Northern Cal TRACON
Fri 15:28:22 37.4833 -121.7500 284° West 245 282 6,000 -250 Level Northern Cal TRACON
Fri 15:29:22 37.5167 -121.8333 297° West 254 292 5,500 -737 Descending Northern Cal TRACON
Fri 15:30:16 37.5500 -121.9000 302° West 247 284 4,600 -900 Descending Northern Cal TRACON
Fri 15:31:22 37.5833 -121.9833 297° West 231 266 3,700 -700 Descending Northern Cal TRACON
Fri 15:32:16 37.6000 -122.0333 293° West 187 215 3,200 -684 Descending Northern Cal TRACON
Fri 15:33:16 37.6333 -122.1000 302° West 167 192 2,400 -828 Descending Northern Cal TRACON
Fri 15:34:12 37.6461 -122.1333 296° West 173 199 1,600 -769 Descending Oakland Center
Fri 15:35:13 37.6703 -122.1689 311° West 151 174 900 -683 Descending Oakland Center
Fri 15:36:15 37.6967 -122.2050 313° West 143 165 200 -677 Descending Oakland Center
Fri 15:38:00 37.7167 -122.2167 270° West  Level FlightAware Approximate
Fri 15:45:00 37.7213 -122.2207 270° West  Level Estimated

Login

Don't have an account? Register now (free) for customized features, flight alerts, and more!